createdAt,value
2018-11-26T00:00:21.765Z,85.72
2018-11-26T00:02:50.471Z,86.04
2018-11-26T00:05:18.717Z,85.53
2018-11-26T00:07:47.131Z,85.67
2018-11-26T00:10:32.686Z,85.83
2018-11-26T00:13:01.082Z,85.99
2018-11-26T00:15:29.328Z,85.59
2018-11-26T00:17:57.530Z,85.44
2018-11-26T00:20:25.679Z,85.34
2018-11-26T00:22:53.996Z,85.83
2018-11-26T00:25:22.216Z,85.97
2018-11-26T00:27:50.533Z,85.62
2018-11-26T00:30:18.700Z,85.74
2018-11-26T00:32:47.004Z,85.66
2018-11-26T00:35:15.250Z,86.40
2018-11-26T00:37:43.574Z,85.77
2018-11-26T00:40:11.977Z,85.79
2018-11-26T00:42:40.736Z,86.25
2018-11-26T00:45:11.273Z,85.90
2018-11-26T00:47:39.645Z,85.31
2018-11-26T00:50:09.458Z,86.05
2018-11-26T00:52:38.984Z,86.34
2018-11-26T00:55:09.253Z,85.72
2018-11-26T00:57:37.630Z,85.37
2018-11-26T01:00:10.529Z,85.39
2018-11-26T01:02:38.933Z,85.30
2018-11-26T01:05:07.591Z,85.42
2018-11-26T01:07:35.898Z,85.20
2018-11-26T01:10:04.153Z,85.91
2018-11-26T01:12:32.459Z,85.44
2018-11-26T01:15:00.804Z,85.46
2018-11-26T01:17:29.135Z,85.84
2018-11-26T01:19:57.306Z,85.07
2018-11-26T01:22:25.487Z,85.98
2018-11-26T01:24:53.803Z,86.62
2018-11-26T01:27:22.035Z,86.98
2018-11-26T01:29:50.359Z,85.53
2018-11-26T01:32:18.554Z,85.86
2018-11-26T01:34:46.940Z,85.90
2018-11-26T01:37:15.149Z,86.08
2018-11-26T01:39:44.362Z,86.71
2018-11-26T01:42:12.573Z,86.70
2018-11-26T01:44:40.917Z,86.95
2018-11-26T01:47:09.110Z,87.10
2018-11-26T01:49:37.254Z,86.83
2018-11-26T01:52:05.689Z,87.65
2018-11-26T01:54:33.867Z,88.34
2018-11-26T01:57:02.022Z,88.91
2018-11-26T01:59:30.209Z,88.56
2018-11-26T02:01:58.564Z,88.61
2018-11-26T02:04:27.256Z,88.67
2018-11-26T02:06:56.042Z,88.99
2018-11-26T02:09:24.461Z,88.34
2018-11-26T02:11:52.606Z,88.58
2018-11-26T02:14:20.953Z,88.88
2018-11-26T02:16:49.144Z,88.49
2018-11-26T02:19:18.086Z,88.01
2018-11-26T02:21:46.582Z,88.69
2018-11-26T02:24:14.776Z,89.05
2018-11-26T02:26:43.010Z,89.30
2018-11-26T02:29:11.342Z,89.06
2018-11-26T02:31:39.560Z,88.75
2018-11-26T02:34:07.800Z,88.58
2018-11-26T02:36:36.098Z,89.58
2018-11-26T02:39:06.058Z,88.53
2018-11-26T02:41:34.246Z,88.30
2018-11-26T02:44:02.422Z,87.77
2018-11-26T02:46:30.713Z,87.36
2018-11-26T02:48:58.892Z,87.06
2018-11-26T02:51:27.224Z,86.99
2018-11-26T02:53:55.442Z,86.94
2018-11-26T02:56:23.831Z,86.91
2018-11-26T02:58:52.057Z,86.84
2018-11-26T03:01:20.441Z,87.00
2018-11-26T03:03:48.594Z,87.06
2018-11-26T03:06:16.783Z,86.13
2018-11-26T03:08:44.919Z,86.40
2018-11-26T03:11:13.174Z,85.49
2018-11-26T03:13:41.329Z,85.57
2018-11-26T03:16:09.768Z,85.65
2018-11-26T03:18:37.986Z,85.04
2018-11-26T03:21:06.339Z,85.06
2018-11-26T03:23:35.196Z,84.52
2018-11-26T03:26:03.555Z,85.21
2018-11-26T03:28:31.765Z,83.88
2018-11-26T03:30:59.898Z,83.58
2018-11-26T03:33:28.099Z,83.62
2018-11-26T03:35:56.435Z,84.05
2018-11-26T03:38:57.414Z,84.05
2018-11-26T03:41:25.960Z,83.92
2018-11-26T03:43:54.131Z,83.13
2018-11-26T03:46:22.525Z,83.78
2018-11-26T03:48:50.715Z,83.81
2018-11-26T03:51:18.913Z,83.32
2018-11-26T03:53:47.069Z,84.53
2018-11-26T03:56:15.244Z,83.81
2018-11-26T03:58:43.616Z,83.92
2018-11-26T04:01:11.810Z,84.49
2018-11-26T04:03:39.985Z,83.88
2018-11-26T04:06:08.332Z,84.33
2018-11-26T04:08:36.467Z,84.36
2018-11-26T04:11:05.558Z,84.42
2018-11-26T04:13:33.729Z,85.20
2018-11-26T04:16:02.082Z,84.60
2018-11-26T04:18:30.238Z,84.58
2018-11-26T04:20:58.618Z,84.00
2018-11-26T04:23:26.763Z,84.78
2018-11-26T04:25:55.086Z,84.38
2018-11-26T04:28:23.238Z,84.92
2018-11-26T04:30:51.665Z,84.41
2018-11-26T04:33:20.652Z,84.07
2018-11-26T04:35:49.112Z,84.48
2018-11-26T04:38:17.419Z,84.52
2018-11-26T04:40:45.748Z,84.48
2018-11-26T04:43:13.875Z,84.89
2018-11-26T04:45:42.221Z,84.49
2018-11-26T04:48:10.380Z,84.54
2018-11-26T04:50:38.735Z,84.26
2018-11-26T04:53:07.071Z,84.92
2018-11-26T04:55:35.232Z,85.12
2018-11-26T04:58:03.459Z,84.92
2018-11-26T05:00:31.643Z,84.95
2018-11-26T05:03:01.047Z,85.01
2018-11-26T05:05:29.397Z,85.31
2018-11-26T05:07:57.591Z,85.18
2018-11-26T05:10:25.992Z,85.90
2018-11-26T05:12:54.343Z,85.70
2018-11-26T05:15:22.560Z,86.84
2018-11-26T05:17:50.734Z,86.64
2018-11-26T05:20:18.961Z,86.88
2018-11-26T05:22:47.127Z,86.73
2018-11-26T05:25:15.351Z,87.03
2018-11-26T05:27:44.302Z,87.34
2018-11-26T05:30:13.319Z,87.86
2018-11-26T05:32:41.728Z,87.16
2018-11-26T05:35:11.389Z,87.46
2018-11-26T05:37:39.589Z,87.77
2018-11-26T05:40:15.549Z,87.81
2018-11-26T05:42:44.059Z,87.96
2018-11-26T05:45:15.985Z,87.96
2018-11-26T05:47:44.141Z,89.59
2018-11-26T05:50:13.617Z,88.84
2018-11-26T05:52:41.747Z,88.49
2018-11-26T05:55:14.573Z,89.10
2018-11-26T05:57:43.259Z,88.88
2018-11-26T06:00:26.595Z,89.13
2018-11-26T06:02:55.909Z,89.24
2018-11-26T06:05:24.125Z,88.94
2018-11-26T06:07:52.283Z,89.39
2018-11-26T06:10:20.476Z,89.18
2018-11-26T06:12:48.656Z,89.30
2018-11-26T06:15:16.814Z,88.70
2018-11-26T06:17:45.147Z,88.52
2018-11-26T06:20:13.678Z,88.86
2018-11-26T06:22:43.803Z,88.93
2018-11-26T06:25:14.946Z,88.64
2018-11-26T06:27:43.728Z,88.66
2018-11-26T06:30:14.661Z,89.05
2018-11-26T06:32:43.362Z,88.84
2018-11-26T06:35:20.268Z,88.59
2018-11-26T06:37:48.834Z,88.40
2018-11-26T06:40:17.145Z,88.56
2018-11-26T06:42:46.006Z,87.14
2018-11-26T06:45:20.973Z,87.33
2018-11-26T06:47:49.408Z,87.55
2018-11-26T06:50:19.046Z,88.09
2018-11-26T06:52:47.330Z,87.84
2018-11-26T06:55:17.333Z,87.17
2018-11-26T06:57:45.511Z,86.64
2018-11-26T07:00:16.247Z,86.49
2018-11-26T07:02:44.582Z,86.17
2018-11-26T07:05:14.695Z,85.71
2018-11-26T07:07:42.977Z,85.30
2018-11-26T07:10:12.296Z,85.23
2018-11-26T07:12:40.610Z,85.48
2018-11-26T07:15:13.683Z,85.03
2018-11-26T07:17:42.047Z,85.16
2018-11-26T07:20:12.835Z,85.10
2018-11-26T07:22:41.324Z,85.73
2018-11-26T07:25:12.015Z,84.74
2018-11-26T07:27:41.101Z,85.25
2018-11-26T07:30:27.650Z,85.23
2018-11-26T07:32:55.871Z,85.09
2018-11-26T07:35:24.254Z,85.66
2018-11-26T07:37:52.471Z,84.91
2018-11-26T07:40:22.149Z,84.45
2018-11-26T07:43:03.781Z,84.36
2018-11-26T07:45:31.947Z,84.21
2018-11-26T07:48:00.309Z,83.83
2018-11-26T07:50:28.643Z,83.92
2018-11-26T07:52:57.009Z,84.66
2018-11-26T07:55:25.363Z,84.20
2018-11-26T07:57:53.549Z,84.31
2018-11-26T08:00:22.199Z,83.95
2018-11-26T08:02:50.721Z,84.06
2018-11-26T08:05:20.567Z,84.00
2018-11-26T08:07:48.767Z,84.98
2018-11-26T08:10:18.552Z,84.95
2018-11-26T08:12:48.107Z,85.86
2018-11-26T08:15:22.664Z,85.13
2018-11-26T08:17:50.823Z,84.56
2018-11-26T08:20:19.196Z,84.35
2018-11-26T08:22:47.403Z,85.39
2018-11-26T08:25:17.572Z,85.10
2018-11-26T08:27:46.826Z,85.39
2018-11-26T08:30:19.546Z,85.01
2018-11-26T08:32:50.364Z,85.12
2018-11-26T08:35:18.553Z,85.65
2018-11-26T08:37:52.460Z,85.11
2018-11-26T08:40:25.604Z,85.53
2018-11-26T08:43:58.545Z,85.21
2018-11-26T08:46:36.212Z,84.89
2018-11-26T08:49:11.258Z,86.32
2018-11-26T08:51:39.786Z,85.58
2018-11-26T08:54:08.024Z,84.88
2018-11-26T08:56:36.190Z,84.72
2018-11-26T08:59:04.636Z,85.16
2018-11-26T09:01:33.511Z,84.99
2018-11-26T09:04:08.678Z,83.79
2018-11-26T09:06:37.149Z,84.01
2018-11-26T09:09:09.228Z,84.71
2018-11-26T09:11:37.481Z,83.50
2018-11-26T09:14:06.429Z,83.17
2018-11-26T09:16:35.161Z,83.79
2018-11-26T09:19:03.367Z,83.33
2018-11-26T09:21:31.569Z,82.37
2018-11-26T09:23:59.756Z,83.04
2018-11-26T09:26:27.977Z,82.54
2018-11-26T09:28:56.195Z,82.36
2018-11-26T09:31:24.323Z,82.10
2018-11-26T09:33:52.451Z,82.68
2018-11-26T09:36:20.661Z,83.12
2018-11-26T09:38:48.939Z,82.66
2018-11-26T09:41:17.202Z,82.40
2018-11-26T09:43:45.369Z,82.07
2018-11-26T09:46:13.553Z,80.94
2018-11-26T09:48:41.697Z,81.30
2018-11-26T09:51:14.096Z,81.16
2018-11-26T09:53:38.097Z,81.32
2018-11-26T09:56:06.342Z,80.54
2018-11-26T09:58:34.529Z,80.51
2018-11-26T10:01:02.759Z,80.49
2018-11-26T10:03:30.974Z,80.66
2018-11-26T10:05:59.201Z,80.25
2018-11-26T10:08:27.331Z,80.41
2018-11-26T10:10:55.531Z,80.04
2018-11-26T10:13:23.774Z,79.38
2018-11-26T10:15:51.955Z,78.75
2018-11-26T10:18:20.111Z,78.58
2018-11-26T10:20:48.291Z,79.28
2018-11-26T10:23:16.483Z,78.47
2018-11-26T10:25:44.676Z,77.61
2018-11-26T10:28:12.861Z,77.24
2018-11-26T10:30:41.023Z,77.56
2018-11-26T10:33:14.691Z,77.54
2018-11-26T10:35:37.428Z,77.46
2018-11-26T10:38:06.888Z,76.47
2018-11-26T10:40:35.044Z,76.15
2018-11-26T10:43:03.310Z,75.78
2018-11-26T10:45:31.462Z,76.47
2018-11-26T10:47:59.660Z,75.70
2018-11-26T10:50:27.809Z,75.59
2018-11-26T10:52:58.368Z,76.11
2018-11-26T10:55:33.083Z,75.82
2018-11-26T10:58:01.465Z,76.18
2018-11-26T11:00:35.647Z,75.78
2018-11-26T11:03:04.043Z,76.62
2018-11-26T11:05:32.341Z,76.43
2018-11-26T11:08:07.152Z,76.82
2018-11-26T11:10:35.324Z,76.70
2018-11-26T11:13:03.820Z,76.41
2018-11-26T11:15:32.033Z,76.06
2018-11-26T11:18:00.288Z,75.96
2018-11-26T11:20:29.081Z,76.32
2018-11-26T11:22:57.282Z,75.52
2018-11-26T11:25:25.559Z,76.52
2018-11-26T11:27:53.750Z,75.61
2018-11-26T11:30:23.962Z,76.80
2018-11-26T11:32:53.206Z,76.59
2018-11-26T11:35:21.443Z,77.10
2018-11-26T11:37:50.525Z,77.60
2018-11-26T11:40:21.196Z,78.08
2018-11-26T11:42:49.908Z,78.62
2018-11-26T11:45:18.428Z,78.54
2018-11-26T11:47:46.653Z,79.27
2018-11-26T11:50:16.698Z,78.83
2018-11-26T11:52:45.140Z,79.34
2018-11-26T11:55:15.714Z,79.20
2018-11-26T11:57:44.062Z,78.60
2018-11-26T12:00:20.769Z,78.67
2018-11-26T12:02:48.940Z,79.12
2018-11-26T12:05:17.200Z,78.53
2018-11-26T12:07:45.394Z,78.62
2018-11-26T12:10:13.638Z,78.34
2018-11-26T12:12:41.839Z,78.32
2018-11-26T12:15:12.036Z,78.48
2018-11-26T12:17:40.816Z,78.75
2018-11-26T12:20:10.912Z,78.48
2018-11-26T12:22:40.196Z,79.31
2018-11-26T12:25:11.293Z,78.44
2018-11-26T12:27:39.513Z,79.02
2018-11-26T12:30:16.012Z,79.57
2018-11-26T12:32:44.150Z,79.99
2018-11-26T12:35:12.332Z,80.17
2018-11-26T12:37:40.536Z,79.23
2018-11-26T12:40:13.623Z,78.87
2018-11-26T12:42:41.832Z,79.27
2018-11-26T12:45:33.801Z,79.61
2018-11-26T12:48:02.174Z,79.66
2018-11-26T12:50:30.463Z,80.68
2018-11-26T12:52:58.617Z,80.62
2018-11-26T12:55:26.801Z,81.04
2018-11-26T12:57:55.920Z,80.59
2018-11-26T13:00:26.670Z,80.52
2018-11-26T13:03:02.111Z,80.28
2018-11-26T13:05:30.322Z,80.80
2018-11-26T13:07:58.490Z,80.62
2018-11-26T13:10:26.671Z,80.07
2018-11-26T13:12:54.955Z,81.23
2018-11-26T13:15:25.081Z,80.25
2018-11-26T13:17:53.277Z,80.42
2018-11-26T13:20:25.671Z,80.65
2018-11-26T13:22:54.370Z,81.14
2018-11-26T13:25:25.373Z,81.40
2018-11-26T13:27:55.225Z,81.01
2018-11-26T13:30:27.209Z,81.34
2018-11-26T13:32:59.982Z,80.57
2018-11-26T13:35:28.220Z,80.14
2018-11-26T13:37:56.465Z,79.77
2018-11-26T13:40:24.666Z,79.27
2018-11-26T13:42:52.882Z,78.99
2018-11-26T13:45:29.592Z,79.82
2018-11-26T13:47:57.841Z,78.90
2018-11-26T13:50:29.896Z,78.96
2018-11-26T13:52:58.203Z,79.27
2018-11-26T13:55:26.438Z,79.26
2018-11-26T13:57:54.613Z,79.03
2018-11-26T14:00:22.800Z,79.37
2018-11-26T14:02:51.007Z,79.47
2018-11-26T14:05:19.551Z,80.23
2018-11-26T14:07:48.043Z,79.30
2018-11-26T14:10:21.526Z,79.62
2018-11-26T14:13:23.272Z,79.66
2018-11-26T14:15:51.611Z,80.03
2018-11-26T14:18:19.800Z,80.80
2018-11-26T14:20:48.023Z,81.40
2018-11-26T14:23:16.197Z,80.13
2018-11-26T14:25:44.441Z,80.40
2018-11-26T14:28:12.672Z,80.14
2018-11-26T14:30:40.950Z,80.17
2018-11-26T14:33:09.462Z,80.14
2018-11-26T14:35:37.621Z,79.90
2018-11-26T14:38:08.495Z,80.44
2018-11-26T14:40:42.962Z,79.86
2018-11-26T14:43:11.181Z,80.09
2018-11-26T14:45:39.442Z,80.79
2018-11-26T14:48:07.653Z,80.69
2018-11-26T14:50:35.880Z,80.64
2018-11-26T14:53:05.148Z,80.19
2018-11-26T14:55:35.729Z,79.97
2018-11-26T14:58:04.077Z,79.80
2018-11-26T15:00:32.314Z,80.25
2018-11-26T15:03:00.524Z,79.80
2018-11-26T15:05:28.716Z,79.49
2018-11-26T15:07:56.887Z,78.73
2018-11-26T15:10:25.551Z,79.02
2018-11-26T15:12:53.772Z,78.71
2018-11-26T15:15:25.003Z,77.57
2018-11-26T15:17:53.200Z,78.06
2018-11-26T15:20:25.458Z,78.23
2018-11-26T15:22:55.935Z,76.78
2018-11-26T15:25:26.731Z,76.35
2018-11-26T15:27:57.965Z,77.26
2018-11-26T15:30:26.213Z,76.41
2018-11-26T15:32:56.084Z,75.85
2018-11-26T15:35:24.509Z,75.52
2018-11-26T15:37:52.814Z,75.55
2018-11-26T15:40:21.744Z,75.25
2018-11-26T15:42:49.982Z,75.20
2018-11-26T15:45:22.873Z,76.24
2018-11-26T15:47:52.262Z,76.58
2018-11-26T15:50:20.865Z,76.59
2018-11-26T15:52:48.759Z,76.34
2018-11-26T15:55:18.501Z,77.18
2018-11-26T15:57:46.839Z,75.92
2018-11-26T16:00:16.561Z,76.08
2018-11-26T16:02:44.962Z,75.84
2018-11-26T16:05:19.024Z,76.44
2018-11-26T16:07:48.117Z,76.86
2018-11-26T16:10:16.355Z,77.12
2018-11-26T16:12:46.345Z,76.00
2018-11-26T16:15:18.456Z,76.18
2018-11-26T16:17:46.705Z,75.55
2018-11-26T16:20:17.947Z,75.82
2018-11-26T16:22:46.186Z,75.62
2018-11-26T16:25:16.468Z,76.34
2018-11-26T16:27:44.857Z,75.64
2018-11-26T16:30:14.698Z,75.73
2018-11-26T16:32:44.933Z,75.35
2018-11-26T16:35:18.914Z,75.78
2018-11-26T16:37:47.198Z,75.82
2018-11-26T16:40:16.537Z,76.29
2018-11-26T16:42:44.808Z,76.25
2018-11-26T16:45:17.508Z,75.63
2018-11-26T16:47:48.367Z,76.18
2018-11-26T16:50:17.967Z,76.30
2018-11-26T16:52:46.218Z,77.20
2018-11-26T16:55:15.587Z,76.56
2018-11-26T16:57:43.856Z,77.86
2018-11-26T17:00:19.658Z,76.82
2018-11-26T17:02:49.500Z,76.71
2018-11-26T17:05:26.851Z,77.33
2018-11-26T17:07:55.062Z,77.24
2018-11-26T17:10:23.240Z,76.96
2018-11-26T17:12:51.700Z,77.23
2018-11-26T17:15:19.880Z,76.80
2018-11-26T17:17:48.074Z,76.61
2018-11-26T17:20:17.024Z,77.29
2018-11-26T17:22:45.284Z,77.08
2018-11-26T17:25:14.922Z,77.86
2018-11-26T17:27:43.884Z,77.88
2018-11-26T17:30:18.724Z,77.49
2018-11-26T17:32:49.720Z,77.32
2018-11-26T17:35:18.038Z,78.23
2018-11-26T17:37:46.250Z,78.42
2018-11-26T17:40:23.793Z,78.46
2018-11-26T17:42:52.597Z,78.61
2018-11-26T17:45:21.605Z,79.41
2018-11-26T17:47:51.593Z,79.02
2018-11-26T17:50:28.919Z,78.32
2018-11-26T17:52:57.277Z,78.78
2018-11-26T17:55:25.561Z,78.33
2018-11-26T17:57:53.999Z,78.20
2018-11-26T18:00:34.242Z,78.92
2018-11-26T18:03:02.475Z,78.67
2018-11-26T18:05:31.344Z,78.43
2018-11-26T18:08:08.867Z,78.09
2018-11-26T18:10:37.229Z,77.88
2018-11-26T18:13:05.923Z,78.14
2018-11-26T18:15:34.222Z,78.16
2018-11-26T18:18:02.419Z,78.45
2018-11-26T18:20:30.780Z,78.34
2018-11-26T18:22:58.977Z,78.37
2018-11-26T18:25:27.187Z,78.65
2018-11-26T18:28:02.197Z,79.38
2018-11-26T18:30:35.496Z,79.12
2018-11-26T18:33:04.063Z,79.64
2018-11-26T18:35:32.327Z,80.02
2018-11-26T18:38:00.600Z,79.89
2018-11-26T18:40:29.458Z,80.23
2018-11-26T18:42:57.838Z,79.77
2018-11-26T18:45:26.043Z,79.60
2018-11-26T18:47:54.300Z,79.77
2018-11-26T18:50:22.543Z,80.35
2018-11-26T18:52:51.292Z,80.43
2018-11-26T18:55:19.997Z,80.24
2018-11-26T18:57:48.218Z,80.75
2018-11-26T19:00:24.495Z,80.12
2018-11-26T19:02:53.686Z,80.50
2018-11-26T19:05:21.994Z,79.56
2018-11-26T19:07:51.165Z,80.15
2018-11-26T19:10:22.004Z,80.32
2018-11-26T19:13:25.980Z,80.98
2018-11-26T19:16:05.861Z,80.55
2018-11-26T19:18:34.106Z,80.67
2018-11-26T19:21:02.379Z,80.96
2018-11-26T19:23:30.631Z,81.55
2018-11-26T19:25:58.840Z,80.42
2018-11-26T19:28:27.072Z,80.08
2018-11-26T19:30:55.352Z,79.70
2018-11-26T19:33:23.562Z,79.74
2018-11-26T19:35:51.802Z,79.16
2018-11-26T19:38:20.046Z,79.93
2018-11-26T19:40:48.267Z,79.55
2018-11-26T19:43:16.529Z,79.86
2018-11-26T19:45:44.816Z,79.05
2018-11-26T19:48:13.019Z,79.11
2018-11-26T19:50:41.217Z,79.26
2018-11-26T19:53:11.234Z,78.88
2018-11-26T19:55:41.187Z,79.18
2018-11-26T19:58:09.988Z,79.25
2018-11-26T20:00:38.939Z,78.77
2018-11-26T20:03:22.411Z,78.54
2018-11-26T20:06:05.190Z,78.40
2018-11-26T20:08:33.456Z,78.80
2018-11-26T20:11:01.708Z,78.74
2018-11-26T20:13:30.012Z,77.96
2018-11-26T20:15:58.496Z,78.21
2018-11-26T20:18:28.587Z,78.75
2018-11-26T20:20:55.024Z,78.55
2018-11-26T20:23:23.288Z,77.97
2018-11-26T20:25:52.242Z,78.54
2018-11-26T20:28:19.852Z,79.01
2018-11-26T20:30:48.708Z,78.96
2018-11-26T20:33:17.157Z,78.59
2018-11-26T20:35:46.571Z,79.03
2018-11-26T20:38:15.850Z,79.53
2018-11-26T20:40:44.101Z,78.93
2018-11-26T20:43:13.619Z,78.81
2018-11-26T20:45:44.203Z,77.84
2018-11-26T20:48:12.471Z,78.46
2018-11-26T20:50:45.531Z,78.54
2018-11-26T20:53:13.771Z,77.74
2018-11-26T20:55:42.615Z,78.33
2018-11-26T20:58:10.839Z,78.30
2018-11-26T21:00:40.177Z,77.80
2018-11-26T21:03:09.715Z,78.28
2018-11-26T21:05:38.771Z,77.90
2018-11-26T21:08:07.154Z,77.36
2018-11-26T21:10:35.889Z,77.62
2018-11-26T21:13:04.272Z,77.66
2018-11-26T21:15:32.556Z,77.72
2018-11-26T21:18:04.641Z,77.73
2018-11-26T21:20:38.446Z,77.41
2018-11-26T21:23:12.152Z,77.47
2018-11-26T21:25:40.562Z,78.00
2018-11-26T21:28:09.317Z,77.50
2018-11-26T21:30:37.548Z,77.27
2018-11-26T21:33:06.177Z,77.29
2018-11-26T21:35:34.473Z,77.39
2018-11-26T21:38:02.806Z,77.43
2018-11-26T21:40:31.080Z,77.38
2018-11-26T21:43:00.385Z,77.50
2018-11-26T21:45:32.448Z,76.61
2018-11-26T21:48:00.674Z,77.39
2018-11-26T21:50:28.904Z,77.08
2018-11-26T21:52:57.205Z,77.11
2018-11-26T21:55:25.435Z,76.51
2018-11-26T21:57:53.666Z,76.77
2018-11-26T22:00:28.849Z,76.76
2018-11-26T22:02:57.572Z,77.62
2018-11-26T22:05:26.882Z,77.25
2018-11-26T22:07:55.061Z,77.25
2018-11-26T22:10:24.200Z,77.28
2018-11-26T22:12:54.606Z,77.96
2018-11-26T22:15:23.086Z,77.79
2018-11-26T22:17:51.377Z,78.15
2018-11-26T22:20:22.691Z,77.75
2018-11-26T22:22:50.966Z,77.48
2018-11-26T22:25:19.339Z,76.64
2018-11-26T22:27:47.687Z,77.09
2018-11-26T22:30:21.560Z,76.76
2018-11-26T22:32:49.862Z,76.38
2018-11-26T22:35:18.174Z,76.59
2018-11-26T22:37:46.451Z,76.56
2018-11-26T22:40:21.608Z,76.45
2018-11-26T22:42:50.214Z,77.03
2018-11-26T22:45:23.219Z,76.69
2018-11-26T22:47:58.441Z,76.43
2018-11-26T22:50:26.668Z,76.21
2018-11-26T22:52:54.899Z,76.68
2018-11-26T22:55:23.164Z,76.91
2018-11-26T22:57:51.518Z,77.02
2018-11-26T23:00:34.746Z,76.90
2018-11-26T23:03:03.120Z,76.75
2018-11-26T23:05:31.371Z,76.95
2018-11-26T23:07:59.765Z,76.47
2018-11-26T23:10:27.979Z,76.33
2018-11-26T23:12:56.399Z,75.96
2018-11-26T23:15:24.618Z,76.52
2018-11-26T23:17:52.857Z,76.12
2018-11-26T23:20:21.103Z,76.20
2018-11-26T23:22:49.510Z,75.16
2018-11-26T23:25:19.129Z,75.97
2018-11-26T23:27:47.376Z,75.21
2018-11-26T23:30:22.575Z,75.39
2018-11-26T23:32:55.039Z,74.97
2018-11-26T23:35:23.420Z,75.94
2018-11-26T23:37:51.873Z,76.01
2018-11-26T23:40:20.075Z,75.00
2018-11-26T23:42:48.569Z,74.99
2018-11-26T23:45:26.354Z,74.91
2018-11-26T23:47:54.913Z,74.48
2018-11-26T23:50:23.177Z,75.13
2018-11-26T23:52:51.489Z,75.15
2018-11-26T23:55:23.266Z,75.29
2018-11-26T23:57:51.661Z,74.78
